Flight ASXC01X

  • Submitted By: Rafal Piotrowski
  • Departure Airport: Krakow im. Jana Pawla II (EPKK)
  • Arrival Airport: Gdansk im. Lecha Walesy (EPGD)
  • Aircraft: B737-800 (SP-GLO)
  • Flight Time: 1.14
  • Date Submitted: 12/03/2015
  • Route: NAVUR N744 OVBOR N133 GRUDA Z95 OSLOG
  • Status: Rejected
Flight Details
Gross Revenue:
(143 load / € 125.00 per unit
€ 17,875.00
Fuel Cost:
(6662 fuel used @ 0.45 / unit)
€ 2,997.90

Additional Log Information:

View Log

[2015/12/02 23:11:00]
Flight IATA:ASXC01X
Pilot Number:ASX0102
Company ICAO:ASX
Aircraft Type:B737-800
PAX:143
Aircraft Registration:SP-GLO
Departing Airport: EPKK
Destination Airport: EPGD
Alternate Airport:EPBY
Online: VATSIM
Route:NAVUR N744 OVBOR N133 GRUDA Z95 OSLOG
Flight Level:32000
23:11 Zero fuel Weight: 127245 Lbs, Fuel Weight: 14318 Lbs
23:11 VATSIM:EPKK 022230Z 27007KT 4000 -DZ BR FEW004 OVC008 08/07 Q1028
23:11 VATSIM:EPGD 022230Z 26007KT 9999 -RA FEW013 BKN042 07/06 Q1022 R11/290095
23:23 Parking Brakes off
23:23 Com1 Freq=122.80
23:31 VR= 155 Knots
23:31 V2= 162 Knots
23:31 Take-off
23:31 Take off Weight: 141089 Lbs
23:31 Wind: 299? @ 007 Knots Heading: 258?
23:31 POS N50? 04? 38?? E019? 46? 59??
23:31 N11 102 N12 102
23:32 Flaps:3 at 165 Knots
23:32 Flaps:2 at 145 Knots
23:32 Gear Up: 180 Knots
23:33 Flaps:1 at 200 Knots
23:33 Flaps:0 at 221 Knots
23:47 Wind:319?@062 Knots Heading: 330? Ground Speed: 387 Knots Altitude 31663 ft
23:47 TOC
23:47 Fuel Weight: 10680 Lb
00:02 Wind:311?@061 Knots Heading: 338? Ground Speed: 392 Knots Altitude 32352 ft
00:02 TOD
00:02 Fuel Weight: 9258 Lb
00:06 Gear Down: 277 Knots
00:06 Gear Up: 275 Knots
00:17 Wind:296?@022 Knots Heading: 357? Ground Speed: 262 Knots Altitude 11459 ft
00:27 Flaps:1 at 202 Knots
00:27 Flaps:2 at 200 Knots
00:27 Flaps:3 at 190 Knots
00:27 Flaps:2 at 189 Knots
00:27 Flaps:3 at 187 Knots
00:27 Flaps:4 at 187 Knots
00:28 Flaps:6 at 160 Knots
00:28 Flaps:5 at 159 Knots
00:28 Flaps:6 at 158 Knots
00:28 Flaps:7 at 159 Knots
00:28 Gear Down: 158 Knots
00:29 Flaps:8 at 159 Knots
00:29 Flaps:7 at 164 Knots
00:30 Flaps:8 at 155 Knots
00:32 Wind:254?@006 Knots Heading: 292? Ground Speed: 135 Knots Altitude 557 ft
00:32 TouchDown:Rate -562 ft/min Speed: 133 Knots
00:32 VATSIM:EPGD 030000Z 25005KT 210V270 9999 BKN013 07/06 Q1022
00:32 Land
00:32 Wind:250?@005 Knots
00:32 Heading: 293?
00:32 Flight Duration: 01:01
00:32 Landing Weight: 135093 Lbs
00:32 POS N54? 22? 32?? E018? 28? 25??
00:37 Parking brakes on
00:37 Block to Block Duration: 01:14
00:37 Final Fuel: 7656 Lbls
00:37 Spent Fuel: 6662 Lbls
00:37 Flight Length: 314 NM
00:37 TOD Land Length: 134 NM

Comments

Commenter
Comment
Rafal Piotrowski
landing rate is too high

Route Map